Time;durP1;ratioP1;P1;durP2;ratioP2;P2;SDS_P1;SDS_P2;PMS_P1;PMS_P2;Temp;Humidity;BMP_temperature;BMP_pressure;BME280_temperature;BME280_humidity;BME280_pressure;Samples;Min_cycle;Max_cycle;Signal;HPM_P1;HPM_P2
2023/09/02 00:00:35;;;;;;;103.00;55.47;;;19.60;93.00;;;;;;4957013;28;92020;-78
2023/09/02 00:03:01;;;;;;;101.53;54.53;;;19.60;93.20;;;;;;4973399;28;90824;-78
2023/09/02 00:05:27;;;;;;;102.55;54.67;;;19.50;93.30;;;;;;4945906;28;90521;-78
2023/09/02 00:07:52;;;;;;;103.10;55.10;;;19.50;93.40;;;;;;4968511;28;90997;-78
2023/09/02 00:10:18;;;;;;;101.32;54.80;;;19.50;93.60;;;;;;4958096;28;91645;-78
2023/09/02 00:12:43;;;;;;;102.97;54.72;;;19.50;93.20;;;;;;4967300;28;90960;-78
2023/09/02 00:15:09;;;;;;;102.95;55.05;;;19.50;93.60;;;;;;4967663;28;90588;-77
2023/09/02 00:17:35;;;;;;;102.00;54.88;;;19.50;93.40;;;;;;4970542;28;89492;-77
2023/09/02 00:20:05;;;;;;;102.90;54.60;;;19.50;93.40;;;;;;4968081;28;92552;-78
2023/09/02 00:22:32;;;;;;;103.60;55.20;;;19.50;93.40;;;;;;4960571;28;90633;-77
2023/09/02 00:24:58;;;;;;;101.22;54.70;;;19.40;93.70;;;;;;4953898;28;91978;-76
2023/09/02 00:27:24;;;;;;;101.85;54.63;;;19.40;93.60;;;;;;4966919;28;90203;-77
2023/09/02 00:29:49;;;;;;;102.60;54.75;;;19.40;93.40;;;;;;4957022;28;89129;-78
2023/09/02 00:32:15;;;;;;;102.28;54.95;;;19.40;93.40;;;;;;4966874;28;90009;-76
2023/09/02 00:34:40;;;;;;;103.70;55.08;;;19.40;93.20;;;;;;4969020;28;90357;-78
2023/09/02 00:37:07;;;;;;;102.85;54.92;;;19.30;93.20;;;;;;4970917;28;93176;-78
2023/09/02 00:39:33;;;;;;;101.13;54.60;;;19.30;93.90;;;;;;4971931;28;89925;-78
2023/09/02 00:42:01;;;;;;;100.85;54.40;;;19.30;93.70;;;;;;4959710;28;90406;-78
2023/09/02 00:44:26;;;;;;;101.93;54.85;;;19.30;93.80;;;;;;4969974;28;90012;-77
2023/09/02 00:46:53;;;;;;;101.20;54.63;;;19.30;93.50;;;;;;4970328;28;90460;-78
2023/09/02 00:49:18;;;;;;;104.05;54.83;;;19.30;93.80;;;;;;4964363;28;94096;-78
2023/09/02 00:51:44;;;;;;;101.90;54.92;;;19.30;93.40;;;;;;4966275;28;91420;-76
2023/09/02 00:54:10;;;;;;;101.25;54.72;;;19.20;93.50;;;;;;4966184;28;89230;-76
2023/09/02 00:56:37;;;;;;;101.35;54.47;;;19.20;93.60;;;;;;4967907;28;89950;-78
2023/09/02 00:59:06;;;;;;;101.55;54.55;;;19.20;93.70;;;;;;4961723;28;90010;-78
2023/09/02 01:01:34;;;;;;;101.10;54.45;;;19.20;93.80;;;;;;4969155;28;92426;-79
2023/09/02 01:04:02;;;;;;;100.65;54.33;;;19.20;93.90;;;;;;4956579;28;90642;-78
2023/09/02 01:06:28;;;;;;;101.47;54.65;;;19.20;93.50;;;;;;4968556;28;89532;-78
2023/09/02 01:08:54;;;;;;;102.25;54.92;;;19.20;93.80;;;;;;4966423;28;90024;-77
2023/09/02 01:11:19;;;;;;;100.95;54.67;;;19.20;93.90;;;;;;4964074;28;94477;-77
2023/09/02 01:13:45;;;;;;;101.72;54.88;;;19.20;94.10;;;;;;4961014;28;92678;-75
2023/09/02 01:16:10;;;;;;;101.75;54.75;;;19.20;94.30;;;;;;4972514;28;90001;-78
2023/09/02 01:18:36;;;;;;;102.68;55.10;;;19.10;93.80;;;;;;4971332;28;90218;-76
2023/09/02 01:21:15;;;;;;;101.28;54.53;;;19.10;93.70;;;;;;4955368;28;90165;-77
2023/09/02 01:23:59;;;;;;;101.60;54.63;;;19.10;93.60;;;;;;4966758;28;90132;-78
2023/09/02 01:26:49;;;;;;;100.75;54.38;;;19.10;93.60;;;;;;4967225;28;92987;-78
2023/09/02 01:29:19;;;;;;;101.28;55.10;;;19.10;93.90;;;;;;4962739;28;95533;-78
2023/09/02 01:31:47;;;;;;;101.97;54.25;;;19.10;94.20;;;;;;4970462;28;90326;-78
2023/09/02 01:34:16;;;;;;;101.63;54.65;;;19.10;94.20;;;;;;4968304;28;90263;-78
2023/09/02 01:36:46;;;;;;;101.15;54.70;;;19.10;94.10;;;;;;4961592;28;90200;-77
2023/09/02 01:39:14;;;;;;;102.65;54.95;;;19.10;94.00;;;;;;4971241;28;89304;-78
2023/09/02 01:41:41;;;;;;;101.22;54.42;;;19.10;94.00;;;;;;4964354;28;90421;-78
2023/09/02 01:44:08;;;;;;;101.13;54.70;;;19.10;94.20;;;;;;4966549;28;89301;-78
2023/09/02 01:46:34;;;;;;;102.82;54.47;;;19.10;94.40;;;;;;4968106;28;91537;-77
2023/09/02 01:49:01;;;;;;;100.75;54.58;;;19.10;93.80;;;;;;4971533;28;89551;-78
2023/09/02 01:51:27;;;;;;;101.18;54.53;;;19.10;94.00;;;;;;4968373;28;92685;-74
2023/09/02 01:53:53;;;;;;;100.90;54.55;;;19.10;93.90;;;;;;4973743;28;89840;-76
2023/09/02 01:56:19;;;;;;;101.60;54.67;;;19.10;94.30;;;;;;4963650;28;90211;-78
2023/09/02 01:58:45;;;;;;;102.95;55.15;;;19.10;94.50;;;;;;4966697;28;91423;-78
2023/09/02 02:01:11;;;;;;;103.20;54.88;;;19.10;94.40;;;;;;4964966;28;90261;-78
2023/09/02 02:03:40;;;;;;;101.43;54.33;;;19.10;94.10;;;;;;4964860;28;89681;-77
2023/09/02 02:06:09;;;;;;;101.57;54.35;;;19.20;94.40;;;;;;4968885;28;90110;-78
2023/09/02 02:08:43;;;;;;;101.10;54.50;;;19.20;94.10;;;;;;4965548;28;89251;-77
2023/09/02 02:11:10;;;;;;;100.10;54.45;;;19.10;94.30;;;;;;4967478;28;91755;-79
2023/09/02 02:13:38;;;;;;;101.18;54.72;;;19.20;94.20;;;;;;4960014;28;90165;-77
2023/09/02 02:16:04;;;;;;;100.95;54.58;;;19.10;93.80;;;;;;4969000;28;90432;-77
2023/09/02 02:18:29;;;;;;;100.78;54.40;;;19.20;93.90;;;;;;4965233;28;89925;-76
2023/09/02 02:21:04;;;;;;;101.32;54.53;;;19.20;93.80;;;;;;4941528;28;91229;-77
2023/09/02 02:23:31;;;;;;;100.75;54.63;;;19.20;93.70;;;;;;4973784;28;89609;-77
2023/09/02 02:26:04;;;;;;;101.28;54.17;;;19.10;93.60;;;;;;4964351;28;91025;-77
2023/09/02 02:28:30;;;;;;;101.80;54.75;;;19.20;93.80;;;;;;4969539;28;89281;-77
2023/09/02 02:30:59;;;;;;;101.97;54.65;;;19.20;93.90;;;;;;4953239;28;92035;-78
2023/09/02 02:33:25;;;;;;;101.22;54.58;;;19.20;93.60;;;;;;4946232;28;92988;-77
2023/09/02 02:35:51;;;;;;;101.68;54.85;;;19.20;94.00;;;;;;4963396;28;90602;-76
2023/09/02 02:38:16;;;;;;;100.63;54.78;;;19.20;94.10;;;;;;4958182;28;89566;-77
2023/09/02 02:40:42;;;;;;;103.63;55.17;;;19.20;94.30;;;;;;4956226;28;91581;-78
2023/09/02 02:43:08;;;;;;;103.03;54.45;;;19.20;93.80;;;;;;4954472;28;90020;-76
2023/09/02 02:45:34;;;;;;;102.50;55.20;;;19.20;93.60;;;;;;4946511;28;91968;-77
2023/09/02 02:48:00;;;;;;;99.80;54.42;;;19.20;93.70;;;;;;4958112;28;89533;-76
2023/09/02 02:50:25;;;;;;;101.97;55.05;;;19.20;93.90;;;;;;4963492;28;92211;-78
2023/09/02 02:52:51;;;;;;;101.57;55.35;;;19.20;93.70;;;;;;4959708;28;90961;-78
2023/09/02 02:55:17;;;;;;;101.18;54.45;;;19.20;93.40;;;;;;4970093;28;89689;-77
2023/09/02 02:57:47;;;;;;;103.68;54.60;;;19.20;94.20;;;;;;4962393;28;88786;-79
2023/09/02 03:00:13;;;;;;;102.05;54.70;;;19.20;93.80;;;;;;4948796;28;90444;-78
2023/09/02 03:02:38;;;;;;;102.28;54.85;;;19.20;93.60;;;;;;4961000;28;91831;-78
2023/09/02 03:05:04;;;;;;;100.85;54.42;;;19.20;93.40;;;;;;4965014;28;91486;-77
2023/09/02 03:07:30;;;;;;;101.57;54.38;;;19.20;93.80;;;;;;4957968;28;90360;-77
2023/09/02 03:09:56;;;;;;;100.82;54.85;;;19.20;94.40;;;;;;4966969;28;92100;-78
2023/09/02 03:12:21;;;;;;;101.43;54.55;;;19.20;94.50;;;;;;4961245;28;91411;-78
2023/09/02 03:14:48;;;;;;;100.05;54.40;;;19.20;93.90;;;;;;4947547;28;91317;-77
2023/09/02 03:17:14;;;;;;;101.05;54.35;;;19.20;93.90;;;;;;4964587;28;90820;-78
2023/09/02 03:19:44;;;;;;;100.65;54.55;;;19.20;93.70;;;;;;4961740;28;92293;-78
2023/09/02 03:22:10;;;;;;;100.68;54.35;;;19.20;93.40;;;;;;4970974;28;90924;-78
2023/09/02 03:24:35;;;;;;;100.60;54.50;;;19.10;93.60;;;;;;4978000;28;91819;-77
2023/09/02 03:27:03;;;;;;;100.80;54.63;;;19.10;93.60;;;;;;4961339;28;89831;-77
2023/09/02 03:29:29;;;;;;;101.75;54.78;;;19.10;93.30;;;;;;4959717;28;92106;-77
2023/09/02 03:31:55;;;;;;;102.20;54.58;;;19.10;93.50;;;;;;4959135;28;92258;-77
2023/09/02 03:34:20;;;;;;;104.43;54.88;;;19.10;93.50;;;;;;4962020;28;90513;-79
2023/09/02 03:36:46;;;;;;;102.20;55.00;;;19.10;93.30;;;;;;4966137;28;89331;-78
2023/09/02 03:39:11;;;;;;;100.90;54.85;;;19.10;93.80;;;;;;4964337;28;94116;-78
2023/09/02 03:41:37;;;;;;;102.13;54.95;;;19.10;93.90;;;;;;4957736;28;92845;-79
2023/09/02 03:44:03;;;;;;;100.63;54.28;;;19.10;93.50;;;;;;4958450;28;90371;-78
2023/09/02 03:46:29;;;;;;;102.35;54.83;;;19.10;93.60;;;;;;4962720;28;90323;-78
2023/09/02 03:48:55;;;;;;;103.80;54.78;;;19.10;93.60;;;;;;4968717;28;89972;-78
2023/09/02 03:51:21;;;;;;;100.97;54.63;;;19.10;93.80;;;;;;4953899;28;89922;-79
2023/09/02 03:53:46;;;;;;;100.55;54.28;;;19.10;93.50;;;;;;4962018;28;91343;-77
2023/09/02 03:56:12;;;;;;;99.93;54.47;;;19.00;93.50;;;;;;4966215;28;90105;-78
2023/09/02 03:58:38;;;;;;;100.28;54.55;;;19.00;93.40;;;;;;4973033;28;91707;-77
2023/09/02 04:01:04;;;;;;;100.45;54.92;;;19.00;93.40;;;;;;4936505;28;91092;-78
2023/09/02 04:03:32;;;;;;;100.38;54.58;;;19.00;93.30;;;;;;4969209;28;89474;-77
2023/09/02 04:05:57;;;;;;;100.82;54.42;;;19.00;93.30;;;;;;4968767;28;93617;-78
2023/09/02 04:08:26;;;;;;;99.68;54.33;;;19.00;93.30;;;;;;4955947;28;91802;-78
2023/09/02 04:10:54;;;;;;;102.25;54.65;;;19.00;93.50;;;;;;4961800;28;90793;-79
2023/09/02 04:13:26;;;;;;;101.13;54.53;;;19.00;93.80;;;;;;4964154;28;90310;-78
2023/09/02 04:16:00;;;;;;;102.53;54.47;;;19.00;93.60;;;;;;4963350;28;89942;-78
2023/09/02 04:18:26;;;;;;;101.60;54.58;;;19.00;94.00;;;;;;4964173;28;90610;-77
2023/09/02 04:20:52;;;;;;;100.55;54.65;;;19.00;93.60;;;;;;4963736;28;91850;-78
2023/09/02 04:23:21;;;;;;;101.75;54.72;;;19.00;93.50;;;;;;4974815;28;89415;-78
2023/09/02 04:25:52;;;;;;;101.43;54.75;;;19.00;93.70;;;;;;4942218;28;90407;-78
2023/09/02 04:28:18;;;;;;;101.97;55.05;;;19.00;93.40;;;;;;4945789;28;91691;-76
2023/09/02 04:30:45;;;;;;;102.18;54.83;;;19.00;93.60;;;;;;4964250;28;90383;-76
2023/09/02 04:33:12;;;;;;;101.35;54.67;;;19.00;93.70;;;;;;4966734;28;90539;-78
2023/09/02 04:35:39;;;;;;;100.72;54.67;;;19.00;93.60;;;;;;4969502;28;88851;-78
2023/09/02 04:38:05;;;;;;;103.50;55.45;;;19.00;93.50;;;;;;4970784;22;89970;-42
2023/09/02 04:40:35;;;;;;;102.15;55.10;;;19.00;93.50;;;;;;4961618;28;90196;-42
2023/09/02 04:43:00;;;;;;;101.45;54.88;;;19.00;93.40;;;;;;4948548;28;91227;-42
2023/09/02 04:45:26;;;;;;;102.35;55.10;;;19.00;93.60;;;;;;4943487;28;90736;-43
2023/09/02 04:47:52;;;;;;;103.90;55.22;;;19.00;93.90;;;;;;4945878;28;91179;-41
2023/09/02 04:50:18;;;;;;;101.50;55.17;;;19.00;93.70;;;;;;4951201;28;90561;-45
2023/09/02 04:52:44;;;;;;;101.05;55.13;;;19.00;93.50;;;;;;4954923;28;90076;-41
2023/09/02 04:55:10;;;;;;;104.97;55.10;;;19.00;93.70;;;;;;4954987;28;90210;-42
2023/09/02 04:57:36;;;;;;;101.78;54.78;;;19.00;93.90;;;;;;4958343;28;90170;-41
2023/09/02 05:00:03;;;;;;;100.15;54.67;;;19.00;93.60;;;;;;4946892;28;90204;-43
2023/09/02 05:02:28;;;;;;;103.72;55.17;;;19.00;94.10;;;;;;4950870;28;90131;-43
2023/09/02 05:04:54;;;;;;;100.93;54.92;;;19.00;93.70;;;;;;4948170;28;90810;-43
2023/09/02 05:07:20;;;;;;;101.20;55.10;;;19.10;93.80;;;;;;4954990;28;91172;-42
2023/09/02 05:09:45;;;;;;;103.57;55.42;;;19.00;93.60;;;;;;4950594;28;91930;-42
2023/09/02 05:12:11;;;;;;;102.43;55.35;;;19.00;93.40;;;;;;4960331;28;89733;-42
2023/09/02 05:14:39;;;;;;;100.82;55.55;;;19.00;93.30;;;;;;4952851;28;90500;-42
2023/09/02 05:17:05;;;;;;;104.10;55.83;;;19.00;93.20;;;;;;4953451;28;92139;-42
2023/09/02 05:19:30;;;;;;;104.07;55.92;;;19.00;93.40;;;;;;4951448;28;90346;-41
2023/09/02 05:21:57;;;;;;;103.72;55.95;;;19.00;93.30;;;;;;4943739;28;90360;-42
2023/09/02 05:24:23;;;;;;;101.53;55.50;;;19.00;93.50;;;;;;4961775;28;88820;-43
2023/09/02 05:26:49;;;;;;;102.53;55.80;;;19.00;93.00;;;;;;4953147;28;95314;-42
2023/09/02 05:29:14;;;;;;;103.50;56.10;;;19.00;92.80;;;;;;4965030;28;89937;-44
2023/09/02 05:31:40;;;;;;;101.68;55.53;;;19.10;93.10;;;;;;4958275;28;92007;-41
2023/09/02 05:34:06;;;;;;;100.85;55.30;;;19.00;92.90;;;;;;4957703;28;89603;-42
2023/09/02 05:36:32;;;;;;;101.72;54.90;;;19.00;93.20;;;;;;4956838;28;89604;-43
2023/09/02 05:38:57;;;;;;;101.95;54.58;;;19.00;93.40;;;;;;4951821;28;89763;-43
2023/09/02 05:41:24;;;;;;;103.63;55.45;;;19.10;93.70;;;;;;4958728;28;89523;-42
2023/09/02 05:43:50;;;;;;;102.55;56.17;;;19.00;93.50;;;;;;4954763;28;89557;-42
2023/09/02 05:46:16;;;;;;;102.05;54.97;;;19.00;93.20;;;;;;4953838;28;89745;-42
2023/09/02 05:48:41;;;;;;;101.28;55.75;;;19.10;92.90;;;;;;4958135;28;89341;-43
2023/09/02 05:51:07;;;;;;;101.38;55.25;;;19.10;92.90;;;;;;4954977;28;89949;-44
2023/09/02 05:53:33;;;;;;;102.25;55.70;;;19.10;93.10;;;;;;4954946;28;90188;-43
2023/09/02 05:55:58;;;;;;;101.45;55.88;;;19.10;92.80;;;;;;4957148;28;92047;-43
2023/09/02 05:58:27;;;;;;;102.05;56.45;;;19.10;93.00;;;;;;4946120;28;91023;-43
2023/09/02 06:00:52;;;;;;;101.78;55.72;;;19.10;92.90;;;;;;4954499;28;89736;-42
2023/09/02 06:03:18;;;;;;;101.57;55.25;;;19.10;93.20;;;;;;4952573;28;90999;-43
2023/09/02 06:05:43;;;;;;;100.97;55.03;;;19.10;93.30;;;;;;4939940;28;91485;-43
2023/09/02 06:08:09;;;;;;;101.13;55.13;;;19.10;93.20;;;;;;4956949;28;90694;-43
2023/09/02 06:10:36;;;;;;;102.28;55.63;;;19.20;93.30;;;;;;4957913;28;90688;-43
2023/09/02 06:13:01;;;;;;;100.53;54.92;;;19.20;93.10;;;;;;4939971;28;88773;-43
2023/09/02 06:15:27;;;;;;;100.88;55.03;;;19.20;93.00;;;;;;4957239;28;90540;-44
2023/09/02 06:17:53;;;;;;;101.30;55.10;;;19.20;93.00;;;;;;4954218;28;90355;-45
2023/09/02 06:20:20;;;;;;;100.72;55.20;;;19.20;92.80;;;;;;4955298;28;90824;-42
2023/09/02 06:22:46;;;;;;;101.45;55.78;;;19.20;93.00;;;;;;4957032;28;89891;-40
2023/09/02 06:25:12;;;;;;;100.85;55.25;;;19.30;92.80;;;;;;4953527;28;91008;-44
2023/09/02 06:27:38;;;;;;;100.25;55.10;;;19.30;92.70;;;;;;4962391;28;90903;-43
2023/09/02 06:30:04;;;;;;;100.40;54.97;;;19.30;92.50;;;;;;4955571;28;90178;-42
2023/09/02 06:32:30;;;;;;;100.63;54.90;;;19.30;92.50;;;;;;4962184;28;89751;-43
2023/09/02 06:34:57;;;;;;;101.15;54.72;;;19.30;92.60;;;;;;4941083;28;89961;-46
2023/09/02 06:37:23;;;;;;;101.97;55.47;;;19.30;93.10;;;;;;4961245;28;90424;-46
2023/09/02 06:39:53;;;;;;;102.53;55.17;;;19.30;92.60;;;;;;4957991;28;90151;-44
2023/09/02 06:42:19;;;;;;;100.32;54.75;;;19.30;92.70;;;;;;4955955;28;89623;-44
2023/09/02 06:44:47;;;;;;;101.70;55.65;;;19.40;93.00;;;;;;4957747;28;90559;-44
2023/09/02 06:47:13;;;;;;;100.43;55.15;;;19.30;92.40;;;;;;4953528;28;90689;-46
2023/09/02 06:49:39;;;;;;;99.80;54.95;;;19.40;92.80;;;;;;4961453;28;89847;-47
2023/09/02 06:52:05;;;;;;;100.30;54.65;;;19.40;92.50;;;;;;4956583;28;89676;-43
2023/09/02 06:54:30;;;;;;;100.45;54.78;;;19.40;92.40;;;;;;4961578;28;90173;-43
2023/09/02 06:56:56;;;;;;;103.63;55.35;;;19.40;92.30;;;;;;4956080;28;89517;-48
2023/09/02 06:59:23;;;;;;;100.10;54.75;;;19.50;92.20;;;;;;4955119;28;89485;-48
2023/09/02 07:01:48;;;;;;;103.28;55.15;;;19.60;92.20;;;;;;4956485;28;89302;-43
2023/09/02 07:04:14;;;;;;;100.80;54.83;;;19.60;92.70;;;;;;4952962;28;89344;-46
2023/09/02 07:06:39;;;;;;;101.10;54.47;;;19.70;92.80;;;;;;4964014;28;89951;-43
2023/09/02 07:09:05;;;;;;;101.07;55.67;;;19.70;92.30;;;;;;4953778;28;90425;-42
2023/09/02 07:11:31;;;;;;;102.50;55.83;;;19.70;91.00;;;;;;4962242;28;89978;-43
2023/09/02 07:13:57;;;;;;;100.68;54.85;;;19.70;91.10;;;;;;4948069;28;90356;-41
2023/09/02 07:16:23;;;;;;;102.68;55.47;;;19.80;92.20;;;;;;4958769;28;90083;-43
2023/09/02 07:18:48;;;;;;;101.70;55.35;;;19.90;91.80;;;;;;4935399;28;96106;-44
2023/09/02 07:21:14;;;;;;;106.63;55.22;;;20.00;92.50;;;;;;4933542;28;89587;-43
2023/09/02 07:23:40;;;;;;;104.13;55.28;;;20.10;93.30;;;;;;4956057;28;90346;-44
2023/09/02 07:26:05;;;;;;;107.75;55.53;;;20.10;92.50;;;;;;4956970;28;89143;-44
2023/09/02 07:28:32;;;;;;;101.78;55.28;;;20.20;92.50;;;;;;4957599;28;89866;-43
2023/09/02 07:31:01;;;;;;;101.60;55.38;;;20.20;93.30;;;;;;4956753;28;91279;-43
2023/09/02 07:33:27;;;;;;;103.45;55.88;;;20.30;92.00;;;;;;4955844;28;91554;-43
2023/09/02 07:35:53;;;;;;;103.60;55.90;;;20.30;91.70;;;;;;4950051;28;90694;-45
2023/09/02 07:38:19;;;;;;;104.25;55.30;;;20.40;91.90;;;;;;4961895;28;89609;-43
2023/09/02 07:40:44;;;;;;;104.55;55.42;;;20.40;92.00;;;;;;4946294;28;90399;-43
2023/09/02 07:43:10;;;;;;;103.50;55.20;;;20.40;93.20;;;;;;4957399;28;89548;-43
2023/09/02 07:45:36;;;;;;;102.75;55.30;;;20.40;92.90;;;;;;4957886;28;90397;-43
2023/09/02 07:48:02;;;;;;;103.53;55.35;;;20.50;92.90;;;;;;4949747;28;89795;-43
2023/09/02 07:50:27;;;;;;;102.75;55.40;;;20.50;92.20;;;;;;4955290;28;90062;-43
2023/09/02 07:52:53;;;;;;;107.40;55.45;;;20.60;92.70;;;;;;4944708;28;89672;-43
2023/09/02 07:55:18;;;;;;;104.07;55.45;;;20.60;92.80;;;;;;4957981;28;90075;-43
2023/09/02 07:57:44;;;;;;;103.13;55.60;;;20.60;91.90;;;;;;4954461;28;90984;-43
2023/09/02 08:00:10;;;;;;;102.28;55.15;;;20.60;90.90;;;;;;4962805;28;90280;-46
2023/09/02 08:02:36;;;;;;;103.60;55.42;;;20.60;90.20;;;;;;4957472;28;89688;-44
2023/09/02 08:05:01;;;;;;;122.60;70.20;;;20.70;91.10;;;;;;4958835;28;90812;-43
2023/09/02 08:07:27;;;;;;;108.38;59.90;;;20.80;92.50;;;;;;4955856;28;89721;-44
2023/09/02 08:09:53;;;;;;;110.13;60.53;;;20.80;91.90;;;;;;4950106;28;90110;-43
2023/09/02 08:12:18;;;;;;;109.88;58.05;;;20.90;92.20;;;;;;4931016;28;94123;-45
2023/09/02 08:14:44;;;;;;;105.75;57.22;;;21.00;93.80;;;;;;4937308;28;95808;-44
2023/09/02 08:17:09;;;;;;;108.43;58.33;;;20.80;94.30;;;;;;4951566;28;89568;-45
2023/09/02 08:19:36;;;;;;;112.32;57.92;;;20.70;94.90;;;;;;4945096;28;90387;-48
2023/09/02 08:22:01;;;;;;;114.90;59.17;;;20.80;95.20;;;;;;4939879;28;90526;-44
2023/09/02 08:24:27;;;;;;;110.72;58.38;;;21.00;94.70;;;;;;4932833;28;91992;-43
2023/09/02 08:26:53;;;;;;;107.28;57.58;;;21.10;94.50;;;;;;4937209;28;91281;-42
2023/09/02 08:29:18;;;;;;;111.03;58.40;;;21.00;94.10;;;;;;4946743;28;91001;-42
2023/09/02 08:31:44;;;;;;;107.43;57.10;;;21.10;94.00;;;;;;4944585;28;89860;-44
2023/09/02 08:34:09;;;;;;;105.65;56.83;;;21.10;93.70;;;;;;4962729;28;89338;-41
2023/09/02 08:36:35;;;;;;;105.72;57.05;;;21.10;93.50;;;;;;4952223;28;91428;-44
2023/09/02 08:39:00;;;;;;;105.43;56.90;;;21.10;94.20;;;;;;4956746;28;89308;-42
2023/09/02 08:41:30;;;;;;;113.38;57.75;;;21.20;94.10;;;;;;4951685;28;89938;-43
2023/09/02 08:43:59;;;;;;;106.90;57.25;;;21.20;93.70;;;;;;4959730;28;90607;-44
2023/09/02 08:46:29;;;;;;;108.57;57.75;;;21.30;93.70;;;;;;4951370;28;91362;-47
2023/09/02 08:48:58;;;;;;;107.18;57.45;;;21.30;94.10;;;;;;4956601;28;89797;-41
2023/09/02 08:51:25;;;;;;;111.65;57.55;;;21.40;93.70;;;;;;4955535;28;90787;-43
2023/09/02 08:53:54;;;;;;;105.75;56.83;;;21.40;94.30;;;;;;4964160;28;90154;-44
2023/09/02 08:56:23;;;;;;;107.43;57.30;;;21.40;93.70;;;;;;4950173;28;89504;-43
2023/09/02 08:58:49;;;;;;;111.75;58.88;;;21.50;93.80;;;;;;4926796;28;90587;-47
2023/09/02 09:01:18;;;;;;;109.50;58.05;;;21.70;93.10;;;;;;4964789;28;89463;-43
2023/09/02 09:03:49;;;;;;;107.35;58.33;;;21.80;93.10;;;;;;4957825;28;92543;-45
2023/09/02 09:06:16;;;;;;;112.95;58.13;;;21.80;93.20;;;;;;4962976;28;89989;-42
2023/09/02 09:08:42;;;;;;;108.75;58.03;;;21.80;93.30;;;;;;4958891;28;89655;-44
2023/09/02 09:11:09;;;;;;;114.10;58.30;;;21.80;93.20;;;;;;4955152;28;90687;-43
2023/09/02 09:13:43;;;;;;;114.53;58.35;;;21.90;93.10;;;;;;4949225;28;90610;-43
2023/09/02 09:16:13;;;;;;;116.38;58.50;;;22.00;92.10;;;;;;4962533;28;89738;-49
2023/09/02 09:18:39;;;;;;;109.72;58.17;;;22.10;91.20;;;;;;4941144;28;90001;-41
2023/09/02 09:21:05;;;;;;;112.88;58.30;;;22.00;92.40;;;;;;4960612;28;89815;-45
2023/09/02 09:23:30;;;;;;;112.95;58.60;;;22.00;92.50;;;;;;4955657;28;90251;-42
2023/09/02 09:25:57;;;;;;;107.97;58.10;;;22.10;92.70;;;;;;4957803;28;90103;-42
2023/09/02 09:28:23;;;;;;;112.68;58.40;;;22.10;92.40;;;;;;4955138;28;88955;-45
2023/09/02 09:30:49;;;;;;;113.97;58.80;;;22.20;92.20;;;;;;4953421;28;93643;-51
2023/09/02 09:33:18;;;;;;;110.07;57.95;;;22.20;92.20;;;;;;4954520;28;90746;-49
2023/09/02 09:35:44;;;;;;;112.55;58.05;;;22.30;92.30;;;;;;4955074;28;91381;-49
2023/09/02 09:38:09;;;;;;;109.28;57.53;;;22.30;91.70;;;;;;4956123;28;89799;-49
2023/09/02 09:40:38;;;;;;;112.07;58.20;;;22.30;92.00;;;;;;4955177;28;90789;-50
2023/09/02 09:43:23;;;;;;;111.45;57.03;;;22.20;92.00;;;;;;4961384;28;90699;-52
2023/09/02 09:45:52;;;;;;;108.80;57.65;;;22.20;91.70;;;;;;4950987;28;95058;-54
2023/09/02 09:48:17;;;;;;;111.43;57.88;;;22.20;91.50;;;;;;4941620;28;90892;-53
2023/09/02 09:50:43;;;;;;;109.93;57.65;;;22.20;91.50;;;;;;4954337;28;93043;-48
2023/09/02 09:53:09;;;;;;;106.85;57.42;;;22.30;91.20;;;;;;4960969;28;90994;-50
2023/09/02 09:55:36;;;;;;;110.63;57.25;;;22.30;91.90;;;;;;4962051;28;90043;-50
2023/09/02 09:58:03;;;;;;;108.22;57.17;;;22.20;91.80;;;;;;4955479;28;90618;-50
2023/09/02 10:00:29;;;;;;;112.32;57.75;;;22.30;91.80;;;;;;4962181;28;91104;-53
2023/09/02 10:02:56;;;;;;;106.25;56.88;;;22.20;91.60;;;;;;4965985;28;89754;-46
2023/09/02 10:05:28;;;;;;;107.35;57.00;;;22.30;92.10;;;;;;4946913;28;89631;-47
2023/09/02 10:08:12;;;;;;;107.82;57.50;;;22.30;92.60;;;;;;4955876;28;89951;-49
2023/09/02 10:10:38;;;;;;;106.85;57.38;;;22.30;91.20;;;;;;4952441;28;89782;-46
2023/09/02 10:13:05;;;;;;;109.85;57.08;;;22.40;91.10;;;;;;4955518;28;91284;-50
2023/09/02 10:15:32;;;;;;;107.38;57.80;;;22.40;91.10;;;;;;4956966;28;94954;-48
2023/09/02 10:18:03;;;;;;;106.78;57.70;;;22.40;91.10;;;;;;4961722;28;89377;-48
2023/09/02 10:20:38;;;;;;;109.90;57.65;;;22.50;91.20;;;;;;4950794;28;89831;-48
2023/09/02 10:23:10;;;;;;;107.10;57.38;;;22.50;90.20;;;;;;4943619;28;90683;-48
2023/09/02 10:25:54;;;;;;;107.03;56.50;;;22.60;89.30;;;;;;4962070;28;90622;-48
2023/09/02 10:28:36;;;;;;;107.90;57.45;;;22.60;87.60;;;;;;4946156;28;89380;-42
2023/09/02 10:31:04;;;;;;;107.70;57.72;;;22.60;88.90;;;;;;4952784;28;89967;-43
2023/09/02 10:33:45;;;;;;;109.70;57.53;;;22.70;88.70;;;;;;4958966;28;89998;-45
2023/09/02 10:36:16;;;;;;;109.05;57.65;;;22.90;88.00;;;;;;4962292;28;89513;-44
2023/09/02 10:38:46;;;;;;;108.93;57.85;;;23.00;87.10;;;;;;4958767;28;89729;-43
2023/09/02 10:41:13;;;;;;;108.90;57.17;;;23.20;86.40;;;;;;4960341;28;89516;-45
2023/09/02 10:43:40;;;;;;;107.63;57.40;;;23.30;83.70;;;;;;4953340;28;90398;-43
2023/09/02 10:46:08;;;;;;;108.85;57.83;;;23.30;84.50;;;;;;4960395;28;89909;-43
2023/09/02 10:48:39;;;;;;;109.25;57.78;;;23.30;84.50;;;;;;4958570;28;89802;-42
2023/09/02 10:51:05;;;;;;;;;;;23.40;85.00;;;;;;4958793;28;91815;-44
2023/09/02 10:53:58;;;;;;;108.47;57.05;;;23.30;82.70;;;;;;4959578;28;89868;-43
2023/09/02 10:56:33;;;;;;;106.63;56.90;;;23.30;84.00;;;;;;4952919;28;90171;-43
2023/09/02 10:59:00;;;;;;;108.35;56.95;;;23.30;83.90;;;;;;4957124;28;89887;-42
2023/09/02 11:01:40;;;;;;;107.53;56.70;;;23.30;83.50;;;;;;4953060;28;91806;-43
2023/09/02 11:04:06;;;;;;;106.55;56.38;;;23.30;80.90;;;;;;4957890;28;90846;-42
2023/09/02 11:06:31;;;;;;;109.28;56.88;;;23.40;81.10;;;;;;4956273;28;90212;-45
2023/09/02 11:08:59;;;;;;;107.65;56.80;;;23.50;80.90;;;;;;4928784;28;89144;-43
2023/09/02 11:12:10;;;;;;;111.55;58.80;;;23.50;80.70;;;;;;4949668;28;90760;-43
2023/09/02 11:14:36;;;;;;;106.72;57.05;;;23.50;81.90;;;;;;4939732;28;89893;-45
2023/09/02 11:17:28;;;;;;;113.78;58.15;;;23.70;80.40;;;;;;4931606;28;91096;-42
2023/09/02 11:19:58;;;;;;;109.30;58.08;;;23.70;82.10;;;;;;4947034;28;89680;-50
2023/09/02 11:22:55;;;;;;;110.38;58.33;;;23.70;83.40;;;;;;4953501;28;90042;-42
2023/09/02 11:25:41;;;;;;;108.97;57.83;;;23.50;84.30;;;;;;4958422;28;90560;-46
2023/09/02 11:28:19;;;;;;;108.95;58.38;;;23.50;85.70;;;;;;4952406;28;90093;-47
2023/09/02 11:31:13;;;;;;;110.15;58.22;;;23.50;85.20;;;;;;4960151;28;90464;-45
2023/09/02 11:33:39;;;;;;;109.43;57.95;;;23.60;85.40;;;;;;4955580;28;91640;-45
2023/09/02 11:36:09;;;;;;;107.05;57.70;;;23.60;85.60;;;;;;4950630;28;89176;-45
2023/09/02 11:38:35;;;;;;;109.07;57.87;;;23.60;85.30;;;;;;4954571;28;89417;-47
2023/09/02 11:41:01;;;;;;;113.13;58.85;;;23.60;83.70;;;;;;4956288;28;90296;-45
2023/09/02 11:43:33;;;;;;;109.20;58.08;;;23.60;84.20;;;;;;4951025;28;91850;-43
2023/09/02 11:46:00;;;;;;;112.22;58.55;;;23.60;84.50;;;;;;4945954;28;90435;-47
2023/09/02 11:48:30;;;;;;;110.32;58.22;;;23.60;84.20;;;;;;4937296;28;90644;-48
2023/09/02 11:50:59;;;;;;;110.17;57.67;;;23.70;84.80;;;;;;4946940;28;90315;-48
2023/09/02 11:53:30;;;;;;;106.65;57.25;;;23.70;82.80;;;;;;4940987;28;91088;-48
2023/09/02 11:55:57;;;;;;;108.30;57.50;;;23.80;83.60;;;;;;4947649;28;95912;-46
2023/09/02 11:58:23;;;;;;;111.70;58.63;;;23.90;80.60;;;;;;4955822;28;91986;-46
2023/09/02 12:00:49;;;;;;;107.88;57.83;;;24.00;80.70;;;;;;4946274;28;90298;-47
2023/09/02 12:03:31;;;;;;;111.03;58.53;;;24.10;78.40;;;;;;4954391;28;94414;-44
2023/09/02 12:06:00;;;;;;;111.80;58.45;;;24.20;80.30;;;;;;4943953;28;89996;-45
2023/09/02 12:08:29;;;;;;;111.00;58.33;;;24.30;79.10;;;;;;4942781;28;90923;-47
2023/09/02 12:10:54;;;;;;;108.43;57.85;;;24.30;78.40;;;;;;4946143;28;91231;-59
2023/09/02 12:13:20;;;;;;;109.22;57.78;;;24.20;78.50;;;;;;4952082;28;91333;-47
2023/09/02 12:15:51;;;;;;;108.10;57.47;;;24.20;79.40;;;;;;4949901;28;90566;-49
2023/09/02 12:18:18;;;;;;;108.15;57.30;;;24.10;79.60;;;;;;4953019;28;90507;-48
2023/09/02 12:20:44;;;;;;;108.28;57.25;;;24.10;78.60;;;;;;4954296;28;91717;-45